createdAt,value
2022-09-21T00:01:24.350Z,99.90
2022-09-21T00:03:59.702Z,99.90
2022-09-21T00:06:27.971Z,99.90
2022-09-21T00:08:56.290Z,99.90
2022-09-21T00:11:26.928Z,99.90
2022-09-21T00:14:07.052Z,99.90
2022-09-21T00:16:34.025Z,99.90
2022-09-21T00:19:01.276Z,99.90
2022-09-21T00:21:28.393Z,99.90
2022-09-21T00:23:55.361Z,99.90
2022-09-21T00:26:24.867Z,99.90
2022-09-21T00:29:00.003Z,99.90
2022-09-21T00:31:28.035Z,99.90
2022-09-21T00:33:55.181Z,99.90
2022-09-21T00:36:24.440Z,99.90
2022-09-21T00:38:56.706Z,99.90
2022-09-21T00:41:25.158Z,99.90
2022-09-21T00:44:30.992Z,99.90
2022-09-21T00:47:03.510Z,99.90
2022-09-21T00:49:33.588Z,99.90
2022-09-21T00:52:04.242Z,99.90
2022-09-21T00:54:41.173Z,99.90
2022-09-21T00:57:08.533Z,99.90
2022-09-21T00:59:38.323Z,99.90
2022-09-21T01:02:05.349Z,99.90
2022-09-21T01:04:32.971Z,99.90
2022-09-21T01:07:04.112Z,99.90
2022-09-21T01:09:31.375Z,99.90
2022-09-21T01:12:11.336Z,99.90
2022-09-21T01:14:37.887Z,99.90
2022-09-21T01:17:26.609Z,99.90
2022-09-21T01:19:59.150Z,99.90
2022-09-21T01:23:08.243Z,99.90
2022-09-21T01:25:53.330Z,99.90
2022-09-21T01:28:45.816Z,99.90
2022-09-21T01:31:20.721Z,99.90
2022-09-21T01:33:57.285Z,99.90
2022-09-21T01:36:28.300Z,99.90
2022-09-21T01:39:07.986Z,99.90
2022-09-21T01:41:36.482Z,99.90
2022-09-21T01:44:20.022Z,99.90
2022-09-21T01:46:48.303Z,99.90
2022-09-21T01:49:27.234Z,99.90
2022-09-21T01:52:07.931Z,99.90
2022-09-21T01:54:39.917Z,99.90
2022-09-21T01:57:22.853Z,99.90
2022-09-21T01:59:56.196Z,99.90
2022-09-21T02:02:37.992Z,99.90
2022-09-21T02:05:07.483Z,99.90
2022-09-21T02:07:35.569Z,99.90
2022-09-21T02:10:03.606Z,99.90
2022-09-21T02:12:32.956Z,99.90
2022-09-21T02:15:00.565Z,99.90
2022-09-21T02:18:00.882Z,99.90
2022-09-21T02:20:34.179Z,99.90
2022-09-21T02:23:26.022Z,99.90
2022-09-21T02:26:03.735Z,99.90
2022-09-21T02:28:42.644Z,99.90
2022-09-21T02:31:32.637Z,99.90
2022-09-21T02:34:10.743Z,99.90
2022-09-21T02:36:48.695Z,99.90
2022-09-21T02:39:24.187Z,99.90
2022-09-21T02:42:12.997Z,99.90
2022-09-21T02:44:45.732Z,99.90
2022-09-21T02:47:27.338Z,99.90
2022-09-21T02:50:00.179Z,99.90
2022-09-21T02:52:28.774Z,99.90
2022-09-21T02:54:56.842Z,99.90
2022-09-21T02:57:24.306Z,99.90
2022-09-21T02:59:51.627Z,99.90
2022-09-21T03:02:18.278Z,99.90
2022-09-21T03:04:48.011Z,99.90
2022-09-21T03:07:17.935Z,99.90
2022-09-21T03:09:44.926Z,99.90
2022-09-21T03:12:11.588Z,99.90
2022-09-21T03:14:38.433Z,99.90
2022-09-21T03:17:05.051Z,99.90
2022-09-21T03:19:31.677Z,99.90
2022-09-21T03:21:59.666Z,99.90
2022-09-21T03:24:45.114Z,99.90
2022-09-21T03:27:12.673Z,99.90
2022-09-21T03:29:39.279Z,99.90
2022-09-21T03:32:06.239Z,99.90
2022-09-21T03:34:34.185Z,99.90
2022-09-21T03:37:02.025Z,99.90
2022-09-21T03:39:28.694Z,99.90
2022-09-21T03:41:56.881Z,99.90
2022-09-21T03:44:24.976Z,99.90
2022-09-21T03:46:52.299Z,99.90
2022-09-21T03:49:19.281Z,99.90
2022-09-21T03:51:46.038Z,99.90
2022-09-21T03:54:12.670Z,99.90
2022-09-21T03:56:39.288Z,99.90
2022-09-21T03:59:09.477Z,99.90
2022-09-21T04:01:38.622Z,99.90
2022-09-21T04:04:05.388Z,99.90
2022-09-21T04:06:32.229Z,99.90
2022-09-21T04:09:00.200Z,99.90
2022-09-21T04:11:27.791Z,99.90
2022-09-21T04:13:57.818Z,99.90
2022-09-21T04:16:25.395Z,99.90
2022-09-21T04:18:52.203Z,99.90
2022-09-21T04:21:19.981Z,99.90
2022-09-21T04:23:47.380Z,99.90
2022-09-21T04:26:21.755Z,99.90
2022-09-21T04:28:48.690Z,99.90
2022-09-21T04:31:15.325Z,99.90
2022-09-21T04:33:42.089Z,99.90
2022-09-21T04:36:08.788Z,99.90
2022-09-21T04:38:35.382Z,99.90
2022-09-21T04:41:03.404Z,99.90
2022-09-21T04:43:30.213Z,99.90
2022-09-21T04:45:56.925Z,99.90
2022-09-21T04:48:23.869Z,99.90
2022-09-21T04:50:51.025Z,99.90
2022-09-21T04:53:17.616Z,99.90
2022-09-21T04:55:46.018Z,99.90
2022-09-21T04:58:12.786Z,99.90
2022-09-21T05:00:39.436Z,99.90
2022-09-21T05:03:06.037Z,99.90
2022-09-21T05:05:33.156Z,99.90
2022-09-21T05:07:59.811Z,99.90
2022-09-21T05:10:26.469Z,99.90
2022-09-21T05:12:53.068Z,99.90
2022-09-21T05:15:20.404Z,99.90
2022-09-21T05:17:47.066Z,99.90
2022-09-21T05:20:13.726Z,99.90
2022-09-21T05:22:40.375Z,99.90
2022-09-21T05:25:07.742Z,99.90
2022-09-21T05:27:34.325Z,99.90
2022-09-21T05:30:01.222Z,99.90
2022-09-21T05:32:42.951Z,99.90
2022-09-21T05:35:30.312Z,99.90
2022-09-21T05:38:08.633Z,99.90
2022-09-21T05:40:35.678Z,99.90
2022-09-21T05:43:02.688Z,99.90
2022-09-21T05:45:29.847Z,99.90
2022-09-21T05:48:06.686Z,99.90
2022-09-21T05:50:41.884Z,99.90
2022-09-21T05:53:41.614Z,99.90
2022-09-21T05:56:29.408Z,99.90
2022-09-21T05:59:29.463Z,99.90
2022-09-21T06:02:14.804Z,99.90
2022-09-21T06:04:41.654Z,99.90
2022-09-21T06:07:08.331Z,99.90
2022-09-21T06:09:34.969Z,99.90
2022-09-21T06:12:01.766Z,99.90
2022-09-21T06:14:28.641Z,99.90
2022-09-21T06:16:55.445Z,99.90
2022-09-21T06:19:22.102Z,99.90
2022-09-21T06:21:48.827Z,99.90
2022-09-21T06:24:18.047Z,99.90
2022-09-21T06:26:44.655Z,99.90
2022-09-21T06:29:11.276Z,99.90
2022-09-21T06:31:37.880Z,99.90
2022-09-21T06:34:04.609Z,99.90
2022-09-21T06:36:31.870Z,99.90
2022-09-21T06:38:58.543Z,99.90
2022-09-21T06:41:25.259Z,99.90
2022-09-21T06:43:56.699Z,99.90
2022-09-21T06:46:24.024Z,99.90
2022-09-21T06:48:51.037Z,99.90
2022-09-21T06:51:17.650Z,99.90
2022-09-21T06:53:44.291Z,99.90
2022-09-21T06:56:11.133Z,99.90
2022-09-21T06:58:38.264Z,99.90
2022-09-21T07:01:06.427Z,99.90
2022-09-21T07:03:33.114Z,99.90
2022-09-21T07:05:59.880Z,99.90
2022-09-21T07:11:16.100Z,99.90
2022-09-21T07:13:42.711Z,99.90
2022-09-21T07:16:10.058Z,99.90
2022-09-21T07:18:43.465Z,99.90
2022-09-21T07:21:11.323Z,99.90
2022-09-21T07:23:38.142Z,99.90
2022-09-21T07:26:10.693Z,99.90
2022-09-21T07:28:37.973Z,99.90
2022-09-21T07:31:15.488Z,99.90
2022-09-21T07:33:43.109Z,99.90
2022-09-21T07:36:10.748Z,99.90
2022-09-21T07:38:43.152Z,99.90
2022-09-21T07:41:11.847Z,99.90
2022-09-21T07:43:41.348Z,99.90
2022-09-21T07:46:10.140Z,99.90
2022-09-21T07:48:37.574Z,99.90
2022-09-21T07:51:09.239Z,99.90
2022-09-21T07:53:37.611Z,99.90
2022-09-21T07:56:06.479Z,99.90
2022-09-21T07:58:51.491Z,99.90
2022-09-21T08:01:18.280Z,99.90
2022-09-21T08:03:45.058Z,99.90
2022-09-21T08:06:11.702Z,99.90
2022-09-21T08:08:39.383Z,99.90
2022-09-21T08:11:06.622Z,99.90
2022-09-21T08:13:33.267Z,99.90
2022-09-21T08:16:01.389Z,99.90
2022-09-21T08:18:29.149Z,99.90
2022-09-21T08:21:00.559Z,99.90
2022-09-21T08:23:28.931Z,99.90
2022-09-21T08:26:00.777Z,99.90
2022-09-21T08:28:28.517Z,99.90
2022-09-21T08:30:59.651Z,99.90
2022-09-21T08:33:29.631Z,99.90
2022-09-21T08:35:58.605Z,99.90
2022-09-21T08:38:25.982Z,99.90
2022-09-21T08:40:53.897Z,99.90
2022-09-21T08:43:39.971Z,99.90
2022-09-21T08:46:11.270Z,99.90
2022-09-21T08:48:46.057Z,99.90
2022-09-21T08:51:18.577Z,99.90
2022-09-21T08:53:48.180Z,99.90
2022-09-21T08:56:16.125Z,99.90
2022-09-21T08:58:43.561Z,99.90
2022-09-21T09:01:28.300Z,99.90
2022-09-21T09:04:05.754Z,99.90
2022-09-21T09:06:52.412Z,99.90
2022-09-21T09:09:51.531Z,99.90
2022-09-21T09:12:50.910Z,99.90
2022-09-21T09:15:32.889Z,99.90
2022-09-21T09:18:27.258Z,99.90
2022-09-21T09:21:01.872Z,99.90
2022-09-21T09:23:31.449Z,99.90
2022-09-21T09:26:23.460Z,99.90
2022-09-21T09:29:07.199Z,99.90
2022-09-21T09:31:37.632Z,99.90
2022-09-21T09:34:16.189Z,99.90
2022-09-21T09:36:59.190Z,99.90
2022-09-21T09:39:29.579Z,99.90
2022-09-21T09:42:06.474Z,99.90
2022-09-21T09:45:02.901Z,99.90
2022-09-21T09:47:56.966Z,99.90
2022-09-21T09:50:41.610Z,99.90
2022-09-21T09:53:21.688Z,99.90
2022-09-21T09:55:54.384Z,99.90
2022-09-21T09:58:28.980Z,99.90
2022-09-21T10:00:58.773Z,99.90
2022-09-21T10:03:27.633Z,99.90
2022-09-21T10:05:54.647Z,99.90
2022-09-21T10:08:39.788Z,99.90
2022-09-21T10:11:06.483Z,99.90
2022-09-21T10:13:39.061Z,99.90
2022-09-21T10:16:17.778Z,99.90
2022-09-21T10:18:56.182Z,99.90
2022-09-21T10:21:32.790Z,99.90
2022-09-21T10:24:01.128Z,99.90
2022-09-21T10:26:40.393Z,99.90
2022-09-21T10:29:32.098Z,99.90
2022-09-21T10:32:11.101Z,99.90
2022-09-21T10:34:41.930Z,99.90
2022-09-21T10:37:28.948Z,99.90
2022-09-21T10:39:56.826Z,99.90
2022-09-21T10:42:23.779Z,99.90
2022-09-21T10:44:53.351Z,99.90
2022-09-21T10:47:41.389Z,99.90
2022-09-21T10:50:34.724Z,99.90
2022-09-21T10:53:10.576Z,99.90
2022-09-21T10:56:04.752Z,99.90
2022-09-21T10:58:35.956Z,99.90
2022-09-21T11:01:43.247Z,99.90
2022-09-21T11:04:19.410Z,99.90
2022-09-21T11:06:50.459Z,99.90
2022-09-21T11:09:44.958Z,99.90
2022-09-21T11:12:20.548Z,99.90
2022-09-21T11:14:53.575Z,99.90
2022-09-21T11:17:33.378Z,99.90
2022-09-21T11:20:18.174Z,99.90
2022-09-21T11:23:10.970Z,99.90
2022-09-21T11:26:00.857Z,99.90
2022-09-21T11:28:40.801Z,99.90
2022-09-21T11:31:35.622Z,99.90
2022-09-21T11:34:26.943Z,99.90
2022-09-21T11:37:25.525Z,99.90
2022-09-21T11:40:11.001Z,99.90
2022-09-21T11:42:43.685Z,99.90
2022-09-21T11:45:33.060Z,99.90
2022-09-21T11:48:16.758Z,99.90
2022-09-21T11:51:00.810Z,99.90
2022-09-21T11:54:03.188Z,99.90
2022-09-21T11:56:40.968Z,99.90
2022-09-21T11:59:49.360Z,99.90
2022-09-21T12:02:25.027Z,99.90
2022-09-21T12:05:15.551Z,99.90
2022-09-21T12:07:55.042Z,99.90
2022-09-21T12:10:36.648Z,99.90
2022-09-21T12:13:29.758Z,99.90
2022-09-21T12:16:05.825Z,99.90
2022-09-21T12:18:51.238Z,99.90
2022-09-21T12:21:27.776Z,99.90
2022-09-21T12:23:57.742Z,99.90
2022-09-21T12:26:29.443Z,99.90
2022-09-21T12:29:17.257Z,99.90
2022-09-21T12:31:46.844Z,99.90
2022-09-21T12:34:22.480Z,99.90
2022-09-21T12:37:03.559Z,99.90
2022-09-21T12:39:53.075Z,99.90
2022-09-21T12:42:35.224Z,99.90
2022-09-21T12:45:19.641Z,99.90
2022-09-21T12:48:08.662Z,99.90
2022-09-21T12:50:49.838Z,99.90
2022-09-21T12:53:21.402Z,99.90
2022-09-21T12:56:16.162Z,99.90
2022-09-21T12:59:07.094Z,99.90
2022-09-21T13:01:42.417Z,99.90
2022-09-21T13:04:12.374Z,99.90
2022-09-21T13:07:25.573Z,99.90
2022-09-21T13:09:52.963Z,99.90
2022-09-21T13:12:24.770Z,99.90
2022-09-21T13:14:56.116Z,99.90
2022-09-21T13:17:27.521Z,99.90
2022-09-21T13:20:05.227Z,99.90
2022-09-21T13:22:34.642Z,99.90
2022-09-21T13:25:23.795Z,99.90
2022-09-21T13:28:13.445Z,99.90
2022-09-21T13:31:00.554Z,99.90
2022-09-21T13:33:29.484Z,99.90
2022-09-21T13:36:04.888Z,99.90
2022-09-21T13:39:03.530Z,99.90
2022-09-21T13:41:45.788Z,99.90
2022-09-21T13:44:35.193Z,99.90
2022-09-21T13:47:02.215Z,99.90
2022-09-21T13:49:39.550Z,99.90
2022-09-21T13:52:12.249Z,99.90
2022-09-21T13:54:44.699Z,99.90
2022-09-21T13:57:45.524Z,99.90
2022-09-21T14:00:14.995Z,99.90
2022-09-21T14:02:45.377Z,99.90
2022-09-21T14:05:17.514Z,99.90
2022-09-21T14:07:46.827Z,99.90
2022-09-21T14:10:21.979Z,99.90
2022-09-21T14:12:50.595Z,99.90
2022-09-21T14:15:19.271Z,99.90
2022-09-21T14:18:08.740Z,99.90
2022-09-21T14:20:39.611Z,99.90
2022-09-21T14:23:15.041Z,99.90
2022-09-21T14:26:40.068Z,99.80
2022-09-21T14:29:38.410Z,98.90
2022-09-21T14:32:13.468Z,99.20
2022-09-21T14:34:42.387Z,97.70
2022-09-21T14:37:37.704Z,96.80
2022-09-21T14:40:17.263Z,96.90
2022-09-21T14:42:44.296Z,96.10
2022-09-21T14:45:19.190Z,95.50
2022-09-21T14:48:07.446Z,97.00
2022-09-21T14:50:40.842Z,96.00
2022-09-21T14:53:47.225Z,96.30
2022-09-21T14:56:34.977Z,97.30
2022-09-21T14:59:03.913Z,96.10
2022-09-21T15:01:36.384Z,96.20
2022-09-21T15:04:39.204Z,96.50
2022-09-21T15:07:51.920Z,95.20
2022-09-21T15:10:42.024Z,96.00
2022-09-21T15:13:26.456Z,96.40
2022-09-21T15:16:35.810Z,95.30
2022-09-21T15:19:24.739Z,94.50
2022-09-21T15:21:54.293Z,95.40
2022-09-21T15:24:26.953Z,93.40
2022-09-21T15:27:04.524Z,93.30
2022-09-21T15:29:32.531Z,93.00
2022-09-21T15:32:00.800Z,92.90
2022-09-21T15:34:28.309Z,92.00
2022-09-21T15:37:06.907Z,91.20
2022-09-21T15:39:33.584Z,92.50
2022-09-21T15:42:22.396Z,94.10
2022-09-21T15:44:50.644Z,93.10
2022-09-21T15:47:21.060Z,93.00
2022-09-21T15:49:48.668Z,92.40
2022-09-21T15:52:43.043Z,92.20
2022-09-21T15:55:21.257Z,93.00
2022-09-21T15:57:50.919Z,92.20
2022-09-21T16:00:23.582Z,91.30
2022-09-21T16:02:58.636Z,92.10
2022-09-21T16:05:29.600Z,91.60
2022-09-21T16:08:36.373Z,92.00
2022-09-21T16:11:26.245Z,92.10
2022-09-21T16:14:30.776Z,92.80
2022-09-21T16:17:09.333Z,91.40
2022-09-21T16:19:53.769Z,92.20
2022-09-21T16:22:41.553Z,92.40
2022-09-21T16:25:26.086Z,91.30
2022-09-21T16:27:55.973Z,93.00
2022-09-21T16:30:50.937Z,94.30
2022-09-21T16:33:37.071Z,94.10
2022-09-21T16:36:34.022Z,95.50
2022-09-21T16:39:05.911Z,94.10
2022-09-21T16:41:42.092Z,95.80
2022-09-21T16:44:20.988Z,95.00
2022-09-21T16:46:51.643Z,94.80
2022-09-21T16:49:21.584Z,95.20
2022-09-21T16:51:49.974Z,95.30
2022-09-21T16:54:18.410Z,96.10
2022-09-21T16:56:46.316Z,96.40
2022-09-21T16:59:16.237Z,97.00
2022-09-21T17:01:43.759Z,97.30
2022-09-21T17:04:13.295Z,97.80
2022-09-21T17:06:40.324Z,98.60
2022-09-21T17:09:29.601Z,99.00
2022-09-21T17:11:59.295Z,98.80
2022-09-21T17:14:36.905Z,99.40
2022-09-21T17:17:08.386Z,99.10
2022-09-21T17:19:35.656Z,99.30
2022-09-21T17:22:04.295Z,99.70
2022-09-21T17:24:49.178Z,99.90
2022-09-21T17:27:18.990Z,99.90
2022-09-21T17:29:49.484Z,99.90
2022-09-21T17:32:21.675Z,99.90
2022-09-21T17:35:05.771Z,99.90
2022-09-21T17:37:33.699Z,99.90
2022-09-21T17:40:00.555Z,99.90
2022-09-21T17:42:28.359Z,99.90
2022-09-21T17:45:05.122Z,99.90
2022-09-21T17:47:33.686Z,99.90
2022-09-21T17:50:17.130Z,99.90
2022-09-21T17:53:02.827Z,99.90
2022-09-21T17:55:30.466Z,99.90
2022-09-21T17:58:23.137Z,99.90
2022-09-21T18:01:09.570Z,99.90
2022-09-21T18:03:41.799Z,99.90
2022-09-21T18:06:10.025Z,99.90
2022-09-21T18:08:38.560Z,99.90
2022-09-21T18:11:30.144Z,99.90
2022-09-21T18:14:05.727Z,99.90
2022-09-21T18:16:43.604Z,99.90
2022-09-21T18:19:47.977Z,99.90
2022-09-21T18:22:20.250Z,99.90
2022-09-21T18:24:47.403Z,99.90
2022-09-21T18:27:19.998Z,99.90
2022-09-21T18:29:46.936Z,99.90
2022-09-21T18:32:28.210Z,99.90
2022-09-21T18:35:11.218Z,99.90
2022-09-21T18:37:55.109Z,99.90
2022-09-21T18:40:48.583Z,99.90
2022-09-21T18:43:42.876Z,99.90
2022-09-21T18:46:44.582Z,99.90
2022-09-21T18:50:02.531Z,99.90
2022-09-21T18:52:42.074Z,99.90
2022-09-21T18:55:28.543Z,99.90
2022-09-21T18:57:57.362Z,99.90
2022-09-21T19:00:31.329Z,99.90
2022-09-21T19:03:17.157Z,99.90
2022-09-21T19:06:06.233Z,99.90
2022-09-21T19:08:43.380Z,99.90
2022-09-21T19:11:22.710Z,99.90
2022-09-21T19:14:13.292Z,99.90
2022-09-21T19:16:52.144Z,99.90
2022-09-21T19:19:37.306Z,99.90
2022-09-21T19:22:13.787Z,99.90
2022-09-21T19:24:58.286Z,99.90
2022-09-21T19:27:43.801Z,99.90
2022-09-21T19:30:14.309Z,99.90
2022-09-21T19:32:50.218Z,99.90
2022-09-21T19:35:21.619Z,99.90
2022-09-21T19:37:50.014Z,99.90
2022-09-21T19:40:19.653Z,99.90
2022-09-21T19:43:03.310Z,99.90
2022-09-21T19:45:55.780Z,99.90
2022-09-21T19:48:27.151Z,99.90
2022-09-21T19:50:55.775Z,99.90
2022-09-21T19:53:41.879Z,99.90
2022-09-21T19:56:29.628Z,99.90
2022-09-21T19:59:15.227Z,99.90
2022-09-21T20:01:54.919Z,99.90
2022-09-21T20:04:40.440Z,99.90
2022-09-21T20:07:18.986Z,99.90
2022-09-21T20:10:09.669Z,99.90
2022-09-21T20:12:48.589Z,99.90
2022-09-21T20:15:21.829Z,99.90
2022-09-21T20:17:50.240Z,99.90
2022-09-21T20:20:22.061Z,99.90
2022-09-21T20:22:49.340Z,99.90
2022-09-21T20:25:32.051Z,99.90
2022-09-21T20:27:59.310Z,99.90
2022-09-21T20:30:32.611Z,99.90
2022-09-21T20:33:07.445Z,99.90
2022-09-21T20:35:34.656Z,99.90
2022-09-21T20:38:03.067Z,99.90
2022-09-21T20:40:31.065Z,99.90
2022-09-21T20:42:58.351Z,99.90
2022-09-21T20:45:25.322Z,99.90
2022-09-21T20:47:53.205Z,99.90
2022-09-21T20:50:20.573Z,99.90
2022-09-21T20:52:47.769Z,99.90
2022-09-21T20:55:20.369Z,99.90
2022-09-21T20:57:47.169Z,99.90
2022-09-21T21:00:15.863Z,99.90
2022-09-21T21:02:42.877Z,99.90
2022-09-21T21:05:11.188Z,99.90
2022-09-21T21:07:40.969Z,99.90
2022-09-21T21:10:07.921Z,99.90
2022-09-21T21:12:34.624Z,99.90
2022-09-21T21:15:01.246Z,99.90
2022-09-21T21:17:28.674Z,99.90
2022-09-21T21:19:55.404Z,99.90
2022-09-21T21:22:22.010Z,99.90
2022-09-21T21:24:48.649Z,99.90
2022-09-21T21:27:20.970Z,99.90
2022-09-21T21:29:52.926Z,99.90
2022-09-21T21:32:23.683Z,99.90
2022-09-21T21:34:51.679Z,99.90
2022-09-21T21:37:20.467Z,99.90
2022-09-21T21:39:47.703Z,99.90
2022-09-21T21:42:14.761Z,99.90
2022-09-21T21:44:41.625Z,99.90
2022-09-21T21:47:27.800Z,99.90
2022-09-21T21:49:54.949Z,99.90
2022-09-21T21:52:21.583Z,99.90
2022-09-21T21:54:48.195Z,99.90
2022-09-21T21:57:14.914Z,99.90
2022-09-21T21:59:43.133Z,99.90
2022-09-21T22:02:12.980Z,99.90
2022-09-21T22:04:39.700Z,99.90
2022-09-21T22:07:06.279Z,99.90
2022-09-21T22:09:32.894Z,99.90
2022-09-21T22:12:01.810Z,99.90
2022-09-21T22:14:28.548Z,99.90
2022-09-21T22:16:55.362Z,99.90
2022-09-21T22:19:21.974Z,99.90
2022-09-21T22:21:53.858Z,99.90
2022-09-21T22:24:21.451Z,99.90
2022-09-21T22:26:50.950Z,99.90
2022-09-21T22:29:17.636Z,99.90
2022-09-21T22:31:47.359Z,99.90
2022-09-21T22:34:15.035Z,99.90
2022-09-21T22:36:43.465Z,99.90
2022-09-21T22:39:10.445Z,99.90
2022-09-21T22:41:42.025Z,99.90
2022-09-21T22:44:10.167Z,99.90
2022-09-21T22:46:37.803Z,99.90
2022-09-21T22:49:04.737Z,99.90
2022-09-21T22:51:31.935Z,99.90
2022-09-21T22:53:58.809Z,99.90
2022-09-21T22:56:28.348Z,99.90
2022-09-21T22:58:57.457Z,99.90
2022-09-21T23:01:25.723Z,99.90
2022-09-21T23:04:01.175Z,99.90
2022-09-21T23:06:31.693Z,99.90
2022-09-21T23:08:59.073Z,99.90
2022-09-21T23:11:37.912Z,99.90
2022-09-21T23:14:05.322Z,99.90
2022-09-21T23:16:32.218Z,99.90
2022-09-21T23:18:59.413Z,99.90
2022-09-21T23:21:28.347Z,99.90
2022-09-21T23:24:00.632Z,99.90
2022-09-21T23:26:30.064Z,99.90
2022-09-21T23:28:58.952Z,99.90
2022-09-21T23:31:27.096Z,99.90
2022-09-21T23:34:04.065Z,99.90
2022-09-21T23:36:31.739Z,99.90
2022-09-21T23:38:58.784Z,99.90
2022-09-21T23:41:28.181Z,99.90
2022-09-21T23:43:55.493Z,99.90
2022-09-21T23:46:28.384Z,99.90
2022-09-21T23:48:55.593Z,99.90
2022-09-21T23:51:22.675Z,99.90
2022-09-21T23:53:49.893Z,99.90
2022-09-21T23:56:19.124Z,99.90
2022-09-21T23:58:46.061Z,99.90
